createdAt,value
2019-05-18T00:00:22.386Z,99.90
2019-05-18T00:02:27.973Z,99.90
2019-05-18T00:04:34.502Z,99.90
2019-05-18T00:06:40.018Z,99.90
2019-05-18T00:08:45.521Z,99.90
2019-05-18T00:10:51.106Z,99.90
2019-05-18T00:12:56.722Z,99.90
2019-05-18T00:15:02.278Z,99.90
2019-05-18T00:17:17.316Z,99.90
2019-05-18T00:19:15.069Z,99.90
2019-05-18T00:21:20.664Z,99.90
2019-05-18T00:23:26.188Z,99.90
2019-05-18T00:25:31.736Z,99.90
2019-05-18T00:27:37.323Z,99.90
2019-05-18T00:29:47.988Z,99.90
2019-05-18T00:31:53.533Z,99.90
2019-05-18T00:33:59.145Z,99.90
2019-05-18T00:36:05.009Z,99.90
2019-05-18T00:38:10.663Z,99.90
2019-05-18T00:40:16.339Z,99.90
2019-05-18T00:42:21.854Z,99.90
2019-05-18T00:44:27.401Z,99.90
2019-05-18T00:46:32.931Z,99.90
2019-05-18T00:48:38.509Z,99.90
2019-05-18T00:50:44.166Z,99.90
2019-05-18T00:52:49.703Z,99.90
2019-05-18T00:54:55.254Z,99.90
2019-05-18T00:57:00.881Z,99.90
2019-05-18T00:59:06.432Z,99.90
2019-05-18T01:01:12.015Z,99.90
2019-05-18T01:03:17.596Z,99.90
2019-05-18T01:05:23.110Z,99.90
2019-05-18T01:07:28.625Z,99.90
2019-05-18T01:09:34.206Z,99.90
2019-05-18T01:11:39.725Z,99.90
2019-05-18T01:13:45.268Z,99.90
2019-05-18T01:15:50.869Z,99.90
2019-05-18T01:17:57.744Z,99.90
2019-05-18T01:20:04.977Z,99.90
2019-05-18T01:22:10.545Z,99.90
2019-05-18T01:24:16.077Z,99.90
2019-05-18T01:26:21.665Z,99.90
2019-05-18T01:28:27.240Z,99.90
2019-05-18T01:30:32.768Z,99.90
2019-05-18T01:32:38.378Z,99.90
2019-05-18T01:34:43.920Z,99.90
2019-05-18T01:36:49.460Z,99.90
2019-05-18T01:38:54.996Z,99.90
2019-05-18T01:41:00.620Z,99.90
2019-05-18T01:43:06.148Z,99.90
2019-05-18T01:45:16.789Z,99.90
2019-05-18T01:47:19.363Z,99.90
2019-05-18T01:49:25.941Z,99.90
2019-05-18T01:51:31.487Z,99.90
2019-05-18T01:53:38.106Z,99.90
2019-05-18T01:55:43.722Z,99.90
2019-05-18T01:57:51.269Z,99.90
2019-05-18T01:59:56.846Z,99.90
2019-05-18T02:02:02.460Z,99.90
2019-05-18T02:04:08.059Z,99.90
2019-05-18T02:06:13.678Z,99.90
2019-05-18T02:08:20.277Z,99.90
2019-05-18T02:10:25.950Z,99.90
2019-05-18T02:12:31.582Z,99.90
2019-05-18T02:14:37.094Z,99.90
2019-05-18T02:16:42.713Z,99.90
2019-05-18T02:18:48.286Z,99.90
2019-05-18T02:20:53.853Z,99.90
2019-05-18T02:22:59.379Z,99.90
2019-05-18T02:25:08.288Z,99.90
2019-05-18T02:27:13.802Z,99.90
2019-05-18T02:29:19.341Z,99.90
2019-05-18T02:31:24.961Z,99.90
2019-05-18T02:33:30.490Z,99.90
2019-05-18T02:35:36.039Z,99.90
2019-05-18T02:37:41.745Z,99.90
2019-05-18T02:39:48.965Z,99.90
2019-05-18T02:41:54.565Z,99.90
2019-05-18T02:44:00.110Z,99.90
2019-05-18T02:46:05.624Z,99.90
2019-05-18T02:48:11.406Z,99.90
2019-05-18T02:50:18.165Z,99.90
2019-05-18T02:52:23.696Z,99.90
2019-05-18T02:54:29.262Z,99.90
2019-05-18T02:56:35.156Z,99.90
2019-05-18T02:58:40.702Z,99.90
2019-05-18T03:00:46.702Z,99.90
2019-05-18T03:02:53.393Z,99.90
2019-05-18T03:04:58.943Z,99.90
2019-05-18T03:07:04.659Z,99.90
2019-05-18T03:09:10.310Z,99.90
2019-05-18T03:11:15.923Z,99.90
2019-05-18T03:13:21.746Z,99.90
2019-05-18T03:15:27.415Z,99.90
2019-05-18T03:17:32.946Z,99.90
2019-05-18T03:19:38.578Z,99.90
2019-05-18T03:21:44.900Z,99.90
2019-05-18T03:23:50.416Z,99.90
2019-05-18T03:25:55.988Z,99.90
2019-05-18T03:28:01.529Z,99.90
2019-05-18T03:30:10.739Z,99.90
2019-05-18T03:32:16.341Z,99.90
2019-05-18T03:34:21.918Z,99.90
2019-05-18T03:36:27.423Z,99.90
2019-05-18T03:38:32.971Z,99.90
2019-05-18T03:40:38.549Z,99.90
2019-05-18T03:42:44.022Z,99.90
2019-05-18T03:44:49.593Z,99.90
2019-05-18T03:46:55.152Z,99.90
2019-05-18T03:49:00.753Z,99.90
2019-05-18T03:51:06.876Z,99.90
2019-05-18T03:53:12.405Z,99.90
2019-05-18T03:55:17.966Z,99.90
2019-05-18T03:57:23.528Z,99.90
2019-05-18T03:59:29.062Z,99.90
2019-05-18T04:01:34.591Z,99.90
2019-05-18T04:03:40.132Z,99.90
2019-05-18T04:05:45.665Z,99.90
2019-05-18T04:07:51.228Z,99.90
2019-05-18T04:09:56.725Z,99.90
2019-05-18T04:12:02.339Z,99.90
2019-05-18T04:14:08.840Z,99.90
2019-05-18T04:16:14.726Z,99.90
2019-05-18T04:18:20.298Z,99.90
2019-05-18T04:20:25.903Z,99.90
2019-05-18T04:22:31.430Z,99.90
2019-05-18T04:24:37.211Z,99.90
2019-05-18T04:26:42.721Z,99.90
2019-05-18T04:28:48.272Z,99.90
2019-05-18T04:30:53.801Z,99.90
2019-05-18T04:32:59.394Z,99.90
2019-05-18T04:35:07.863Z,99.90
2019-05-18T04:37:13.437Z,99.90
2019-05-18T04:39:18.944Z,99.90
2019-05-18T04:41:24.481Z,99.90
2019-05-18T04:43:30.007Z,99.90
2019-05-18T04:45:36.507Z,99.90
2019-05-18T04:47:42.064Z,99.90
2019-05-18T04:50:03.850Z,99.90
2019-05-18T04:51:54.817Z,99.90
2019-05-18T04:54:00.366Z,99.90
2019-05-18T04:56:05.899Z,99.90
2019-05-18T04:58:11.468Z,99.90
2019-05-18T05:00:17.165Z,99.90
2019-05-18T05:02:22.772Z,99.90
2019-05-18T05:04:28.312Z,99.90
2019-05-18T05:06:33.925Z,99.90
2019-05-18T05:08:39.428Z,99.90
2019-05-18T05:10:44.985Z,99.90
2019-05-18T05:13:13.347Z,99.90
2019-05-18T05:15:19.049Z,99.90
2019-05-18T05:17:24.600Z,99.90
2019-05-18T05:19:30.150Z,99.90
2019-05-18T05:21:35.735Z,99.90
2019-05-18T05:23:41.261Z,99.90
2019-05-18T05:25:46.787Z,99.90
2019-05-18T05:27:52.306Z,99.90
2019-05-18T05:29:57.820Z,99.90
2019-05-18T05:32:03.364Z,99.90
2019-05-18T05:34:08.883Z,99.90
2019-05-18T05:36:14.393Z,99.90
2019-05-18T05:38:19.949Z,99.90
2019-05-18T05:40:25.491Z,99.90
2019-05-18T05:42:31.209Z,99.90
2019-05-18T05:44:36.736Z,99.90
2019-05-18T05:46:42.248Z,99.90
2019-05-18T05:48:47.769Z,99.90
2019-05-18T05:50:53.405Z,99.90
2019-05-18T05:52:59.078Z,99.90
2019-05-18T05:55:08.410Z,99.90
2019-05-18T05:57:13.951Z,99.90
2019-05-18T05:59:19.483Z,99.90
2019-05-18T06:01:25.016Z,99.90
2019-05-18T06:03:30.547Z,99.90
2019-05-18T06:05:37.037Z,99.90
2019-05-18T06:07:42.563Z,99.90
2019-05-18T06:09:48.085Z,99.90
2019-05-18T06:11:53.616Z,99.90
2019-05-18T06:13:59.141Z,99.90
2019-05-18T06:16:04.905Z,99.90
2019-05-18T06:18:10.421Z,99.90
2019-05-18T06:20:16.009Z,99.90
2019-05-18T06:22:21.646Z,99.90
2019-05-18T06:24:27.175Z,99.90
2019-05-18T06:26:32.681Z,99.30
2019-05-18T06:28:38.291Z,98.20
2019-05-18T06:30:43.811Z,97.80
2019-05-18T06:32:49.350Z,96.90
2019-05-18T06:34:54.909Z,96.50
2019-05-18T06:37:00.638Z,95.60
2019-05-18T06:39:07.601Z,95.40
2019-05-18T06:41:13.168Z,94.50
2019-05-18T06:43:18.629Z,94.50
2019-05-18T06:45:24.227Z,93.50
2019-05-18T06:47:29.754Z,92.90
2019-05-18T06:49:35.278Z,92.80
2019-05-18T06:51:40.815Z,92.60
2019-05-18T06:53:46.342Z,91.90
2019-05-18T06:55:53.869Z,90.80
2019-05-18T06:58:00.174Z,90.00
2019-05-18T07:00:14.597Z,89.50
2019-05-18T07:02:20.185Z,90.00
2019-05-18T07:04:25.706Z,92.00
2019-05-18T07:06:31.245Z,91.20
2019-05-18T07:08:36.760Z,89.80
2019-05-18T07:10:42.355Z,90.40
2019-05-18T07:12:47.978Z,87.60
2019-05-18T07:14:53.504Z,87.70
2019-05-18T07:16:59.088Z,89.10
2019-05-18T07:19:04.680Z,87.40
2019-05-18T07:21:21.365Z,88.40
2019-05-18T07:23:17.438Z,86.20
2019-05-18T07:25:23.020Z,85.80
2019-05-18T07:27:28.595Z,85.00
2019-05-18T07:29:34.109Z,83.50
2019-05-18T07:31:39.717Z,88.00
2019-05-18T07:33:45.233Z,87.00
2019-05-18T07:35:50.829Z,82.60
2019-05-18T07:37:56.366Z,83.20
2019-05-18T07:40:02.227Z,81.10
2019-05-18T07:42:07.979Z,80.60
2019-05-18T07:44:13.474Z,82.50
2019-05-18T07:46:19.076Z,83.20
2019-05-18T07:48:24.588Z,81.80
2019-05-18T07:50:30.179Z,78.70
2019-05-18T07:52:35.764Z,78.00
2019-05-18T07:54:41.272Z,77.30
2019-05-18T07:56:46.783Z,80.40
2019-05-18T07:58:52.352Z,78.90
2019-05-18T08:00:57.863Z,78.40
2019-05-18T08:03:03.444Z,74.10
2019-05-18T08:05:10.481Z,73.60
2019-05-18T08:07:16.065Z,70.80
2019-05-18T08:09:21.580Z,69.70
2019-05-18T08:11:27.461Z,68.90
2019-05-18T08:13:32.982Z,69.90
2019-05-18T08:15:39.711Z,70.70
2019-05-18T08:17:45.290Z,70.80
2019-05-18T08:19:50.803Z,71.10
2019-05-18T08:21:56.334Z,72.20
2019-05-18T08:24:02.023Z,70.90
2019-05-18T08:26:07.577Z,69.80
2019-05-18T08:28:13.108Z,73.30
2019-05-18T08:30:18.876Z,69.50
2019-05-18T08:32:24.440Z,67.50
2019-05-18T08:34:29.966Z,67.50
2019-05-18T08:36:35.472Z,69.70
2019-05-18T08:38:41.010Z,70.50
2019-05-18T08:40:46.512Z,68.70
2019-05-18T08:42:52.089Z,67.30
2019-05-18T08:44:57.613Z,69.10
2019-05-18T08:47:04.254Z,67.60
2019-05-18T08:49:09.890Z,69.90
2019-05-18T08:51:15.416Z,71.80
2019-05-18T08:53:20.994Z,70.90
2019-05-18T08:55:26.508Z,71.60
2019-05-18T08:57:32.094Z,69.80
2019-05-18T08:59:40.007Z,70.90
2019-05-18T09:01:46.729Z,67.70
2019-05-18T09:03:52.348Z,67.40
2019-05-18T09:05:57.873Z,69.80
2019-05-18T09:08:03.457Z,69.00
2019-05-18T09:10:09.177Z,71.20
2019-05-18T09:12:14.703Z,74.50
2019-05-18T09:14:20.238Z,70.00
2019-05-18T09:16:25.745Z,70.20
2019-05-18T09:18:31.290Z,67.10
2019-05-18T09:20:36.831Z,69.40
2019-05-18T09:22:42.377Z,73.50
2019-05-18T09:24:47.908Z,70.80
2019-05-18T09:26:53.430Z,70.90
2019-05-18T09:28:58.992Z,68.20
2019-05-18T09:31:04.583Z,65.90
2019-05-18T09:33:10.094Z,65.30
2019-05-18T09:35:15.998Z,61.90
2019-05-18T09:37:21.584Z,65.40
2019-05-18T09:39:27.253Z,63.90
2019-05-18T09:41:32.831Z,63.00
2019-05-18T09:43:38.379Z,63.70
2019-05-18T09:45:43.889Z,65.10
2019-05-18T09:47:49.675Z,61.10
2019-05-18T09:49:55.210Z,62.60
2019-05-18T09:52:00.782Z,59.70
2019-05-18T09:54:06.533Z,60.30
2019-05-18T09:56:13.284Z,62.80
2019-05-18T09:58:18.824Z,67.10
2019-05-18T10:00:26.227Z,68.40
2019-05-18T10:02:31.908Z,69.50
2019-05-18T10:04:39.384Z,69.90
2019-05-18T10:06:44.911Z,66.90
2019-05-18T10:08:50.442Z,64.00
2019-05-18T10:10:56.096Z,65.40
2019-05-18T10:13:01.837Z,64.40
2019-05-18T10:15:08.989Z,62.90
2019-05-18T10:17:14.608Z,61.20
2019-05-18T10:19:20.582Z,63.40
2019-05-18T10:21:26.126Z,66.50
2019-05-18T10:23:31.693Z,67.90
2019-05-18T10:25:37.208Z,69.60
2019-05-18T10:27:42.795Z,76.10
2019-05-18T10:29:49.368Z,70.20
2019-05-18T10:31:54.888Z,66.80
2019-05-18T10:34:00.504Z,66.80
2019-05-18T10:36:06.041Z,61.70
2019-05-18T10:38:11.626Z,62.00
2019-05-18T10:40:17.796Z,68.30
2019-05-18T10:42:23.317Z,68.40
2019-05-18T10:44:28.820Z,63.80
2019-05-18T10:46:35.403Z,62.10
2019-05-18T10:48:40.896Z,62.30
2019-05-18T10:50:46.546Z,61.00
2019-05-18T10:52:52.053Z,62.10
2019-05-18T10:54:57.549Z,63.80
2019-05-18T10:57:03.085Z,63.60
2019-05-18T10:59:08.664Z,63.20
2019-05-18T11:01:14.213Z,64.80
2019-05-18T11:03:19.804Z,62.00
2019-05-18T11:05:25.318Z,61.60
2019-05-18T11:07:30.975Z,60.90
2019-05-18T11:09:36.565Z,62.60
2019-05-18T11:11:42.069Z,66.50
2019-05-18T11:13:47.746Z,64.20
2019-05-18T11:15:53.329Z,66.20
2019-05-18T11:17:58.840Z,57.70
2019-05-18T11:20:07.789Z,57.70
2019-05-18T11:22:23.557Z,56.80
2019-05-18T11:24:29.084Z,54.10
2019-05-18T11:26:34.589Z,57.70
2019-05-18T11:28:40.104Z,56.10
2019-05-18T11:30:45.621Z,54.20
2019-05-18T11:32:51.270Z,58.10
2019-05-18T11:34:56.820Z,55.80
2019-05-18T11:37:03.191Z,55.90
2019-05-18T11:39:16.250Z,58.00
2019-05-18T11:41:22.029Z,55.40
2019-05-18T11:43:28.596Z,50.90
2019-05-18T11:45:40.703Z,53.40
2019-05-18T11:47:46.294Z,58.50
2019-05-18T11:49:51.948Z,58.40
2019-05-18T11:51:57.451Z,61.40
2019-05-18T11:54:02.978Z,57.60
2019-05-18T11:56:08.572Z,60.90
2019-05-18T11:58:14.084Z,51.20
2019-05-18T12:00:24.980Z,52.80
2019-05-18T12:02:30.497Z,53.00
2019-05-18T12:04:36.010Z,55.20
2019-05-18T12:06:41.534Z,54.70
2019-05-18T12:08:47.213Z,54.20
2019-05-18T12:11:05.166Z,56.60
2019-05-18T12:13:10.749Z,54.00
2019-05-18T12:15:16.817Z,52.30
2019-05-18T12:17:22.400Z,57.70
2019-05-18T12:19:27.902Z,57.40
2019-05-18T12:21:33.504Z,52.60
2019-05-18T12:23:45.293Z,54.30
2019-05-18T12:25:58.813Z,52.20
2019-05-18T12:28:09.377Z,52.30
2019-05-18T12:30:16.938Z,51.00
2019-05-18T12:32:22.455Z,53.70
2019-05-18T12:34:28.051Z,56.50
2019-05-18T12:36:39.475Z,51.20
2019-05-18T12:38:48.312Z,52.30
2019-05-18T12:40:54.535Z,52.50
2019-05-18T12:43:00.073Z,52.60
2019-05-18T12:45:07.481Z,51.10
2019-05-18T12:47:14.420Z,52.70
2019-05-18T12:49:20.301Z,55.10
2019-05-18T12:51:25.898Z,55.50
2019-05-18T12:53:31.423Z,61.70
2019-05-18T12:55:36.925Z,59.70
2019-05-18T12:57:42.505Z,55.20
2019-05-18T12:59:48.097Z,53.00
2019-05-18T13:01:59.082Z,58.40
2019-05-18T13:04:04.765Z,53.90
2019-05-18T13:06:10.356Z,56.80
2019-05-18T13:08:15.857Z,57.10
2019-05-18T13:10:21.505Z,58.80
2019-05-18T13:12:27.035Z,60.10
2019-05-18T13:14:32.614Z,60.50
2019-05-18T13:16:38.708Z,60.20
2019-05-18T13:18:44.350Z,55.50
2019-05-18T13:20:51.400Z,54.20
2019-05-18T13:22:57.873Z,53.40
2019-05-18T13:25:04.530Z,56.80
2019-05-18T13:27:10.116Z,55.90
2019-05-18T13:29:15.696Z,55.70
2019-05-18T13:31:21.204Z,57.20
2019-05-18T13:33:26.727Z,58.10
2019-05-18T13:35:32.247Z,55.40
2019-05-18T13:37:37.804Z,52.40
2019-05-18T13:39:43.315Z,52.70
2019-05-18T13:41:48.816Z,49.10
2019-05-18T13:43:54.317Z,53.10
2019-05-18T13:45:59.838Z,54.00
2019-05-18T13:48:05.420Z,51.20
2019-05-18T13:50:12.605Z,50.00
2019-05-18T13:52:18.114Z,50.20
2019-05-18T13:54:23.632Z,56.00
2019-05-18T13:56:29.173Z,55.80
2019-05-18T13:58:34.719Z,53.20
2019-05-18T14:00:40.308Z,51.20
2019-05-18T14:02:45.828Z,53.10
2019-05-18T14:04:51.444Z,53.50
2019-05-18T14:06:56.968Z,53.50
2019-05-18T14:09:02.479Z,56.50
2019-05-18T14:11:08.101Z,56.00
2019-05-18T14:13:13.625Z,58.50
2019-05-18T14:15:22.583Z,54.10
2019-05-18T14:17:26.542Z,56.50
2019-05-18T14:19:32.146Z,53.80
2019-05-18T14:21:37.668Z,59.50
2019-05-18T14:23:43.201Z,54.70
2019-05-18T14:25:49.858Z,54.00
2019-05-18T14:27:55.386Z,57.00
2019-05-18T14:30:01.077Z,56.80
2019-05-18T14:32:10.835Z,62.30
2019-05-18T14:34:14.845Z,60.20
2019-05-18T14:36:20.383Z,60.90
2019-05-18T14:38:25.892Z,62.80
2019-05-18T14:40:31.575Z,63.30
2019-05-18T14:42:37.108Z,65.80
2019-05-18T14:44:42.704Z,62.10
2019-05-18T14:46:48.246Z,67.50
2019-05-18T14:48:53.817Z,59.60
2019-05-18T14:50:59.385Z,61.50
2019-05-18T14:53:04.981Z,65.80
2019-05-18T14:55:11.067Z,65.40
2019-05-18T14:57:16.756Z,64.00
2019-05-18T14:59:22.261Z,63.90
2019-05-18T15:01:27.817Z,65.80
2019-05-18T15:03:33.317Z,64.00
2019-05-18T15:05:39.004Z,64.30
2019-05-18T15:07:44.564Z,66.80
2019-05-18T15:09:50.065Z,67.40
2019-05-18T15:11:55.571Z,66.00
2019-05-18T15:14:01.120Z,65.40
2019-05-18T15:16:06.649Z,67.00
2019-05-18T15:18:12.322Z,62.80
2019-05-18T15:20:18.056Z,69.50
2019-05-18T15:22:23.663Z,68.80
2019-05-18T15:24:29.235Z,67.60
2019-05-18T15:26:34.917Z,67.30
2019-05-18T15:28:40.444Z,65.80
2019-05-18T15:30:45.966Z,64.10
2019-05-18T15:32:51.483Z,66.20
2019-05-18T15:34:56.981Z,71.20
2019-05-18T15:37:02.658Z,70.60
2019-05-18T15:39:08.795Z,69.50
2019-05-18T15:41:14.370Z,66.90
2019-05-18T15:43:19.958Z,65.60
2019-05-18T15:45:25.712Z,68.00
2019-05-18T15:47:31.333Z,72.30
2019-05-18T15:49:36.945Z,69.50
2019-05-18T15:51:42.466Z,73.60
2019-05-18T15:53:48.153Z,77.80
2019-05-18T15:56:05.441Z,81.30
2019-05-18T15:58:01.927Z,85.00
2019-05-18T16:00:10.327Z,85.40
2019-05-18T16:02:16.065Z,92.00
2019-05-18T16:04:21.624Z,92.30
2019-05-18T16:06:27.133Z,88.60
2019-05-18T16:08:32.818Z,91.50
2019-05-18T16:10:40.292Z,92.00
2019-05-18T16:12:45.825Z,92.10
2019-05-18T16:14:51.420Z,92.90
2019-05-18T16:16:59.234Z,93.60
2019-05-18T16:19:04.952Z,93.40
2019-05-18T16:21:10.567Z,94.20
2019-05-18T16:23:16.650Z,94.80
2019-05-18T16:25:22.427Z,95.40
2019-05-18T16:27:29.066Z,95.20
2019-05-18T16:29:34.721Z,95.10
2019-05-18T16:31:40.357Z,94.90
2019-05-18T16:33:45.964Z,95.30
2019-05-18T16:35:51.661Z,95.50
2019-05-18T16:37:57.242Z,95.40
2019-05-18T16:40:02.918Z,94.60
2019-05-18T16:42:08.798Z,95.10
2019-05-18T16:44:14.344Z,95.10
2019-05-18T16:46:19.957Z,95.10
2019-05-18T16:48:27.210Z,95.80
2019-05-18T16:50:32.870Z,95.50
2019-05-18T16:52:38.469Z,95.60
2019-05-18T16:54:44.027Z,95.40
2019-05-18T16:56:49.560Z,95.50
2019-05-18T16:58:55.098Z,95.80
2019-05-18T17:01:00.781Z,96.30
2019-05-18T17:03:10.733Z,96.70
2019-05-18T17:05:16.594Z,97.00
2019-05-18T17:07:22.215Z,97.20
2019-05-18T17:09:29.386Z,96.90
2019-05-18T17:11:34.973Z,97.00
2019-05-18T17:13:40.551Z,97.10
2019-05-18T17:15:46.329Z,97.30
2019-05-18T17:17:52.029Z,97.40
2019-05-18T17:19:57.701Z,97.40
2019-05-18T17:22:04.802Z,97.60
2019-05-18T17:24:10.392Z,97.00
2019-05-18T17:26:19.037Z,97.10
2019-05-18T17:28:29.967Z,97.20
2019-05-18T17:30:43.797Z,97.50
2019-05-18T17:32:51.940Z,97.30
2019-05-18T17:35:02.633Z,96.60
2019-05-18T17:37:20.510Z,96.70
2019-05-18T17:39:31.347Z,97.10
2019-05-18T17:41:41.400Z,97.50
2019-05-18T17:43:47.245Z,97.00
2019-05-18T17:45:52.773Z,96.70
2019-05-18T17:47:58.390Z,96.90
2019-05-18T17:50:06.987Z,96.90
2019-05-18T17:52:12.635Z,96.20
2019-05-18T17:54:18.174Z,96.90
2019-05-18T17:56:23.871Z,97.00
2019-05-18T17:58:29.510Z,96.40
2019-05-18T18:00:35.250Z,95.90
2019-05-18T18:02:41.316Z,96.40
2019-05-18T18:04:56.558Z,96.10
2019-05-18T18:07:02.237Z,96.60
2019-05-18T18:09:08.693Z,97.00
2019-05-18T18:11:14.388Z,97.70
2019-05-18T18:13:19.982Z,98.40
2019-05-18T18:15:29.479Z,97.90
2019-05-18T18:17:35.150Z,97.80
2019-05-18T18:19:40.807Z,97.60
2019-05-18T18:21:46.433Z,97.90
2019-05-18T18:23:58.468Z,98.00
2019-05-18T18:26:04.093Z,97.90
2019-05-18T18:28:09.820Z,97.80
2019-05-18T18:30:16.280Z,97.50
2019-05-18T18:32:21.795Z,98.10
2019-05-18T18:34:27.427Z,97.40
2019-05-18T18:36:33.150Z,96.60
2019-05-18T18:38:38.692Z,96.60
2019-05-18T18:40:44.322Z,96.70
2019-05-18T18:43:06.558Z,96.80
2019-05-18T18:45:13.351Z,97.20
2019-05-18T18:47:18.891Z,99.20
2019-05-18T18:49:25.162Z,99.50
2019-05-18T18:51:30.700Z,99.30
2019-05-18T18:53:37.395Z,99.50
2019-05-18T18:55:42.980Z,99.70
2019-05-18T18:57:48.517Z,99.80
2019-05-18T18:59:56.811Z,99.70
2019-05-18T19:02:01.343Z,99.70
2019-05-18T19:04:07.052Z,99.60
2019-05-18T19:06:12.607Z,99.20
2019-05-18T19:08:18.218Z,98.90
2019-05-18T19:10:23.909Z,98.40
2019-05-18T19:12:29.453Z,98.00
2019-05-18T19:14:35.002Z,97.80
2019-05-18T19:16:40.559Z,98.30
2019-05-18T19:18:46.197Z,98.20
2019-05-18T19:20:51.809Z,98.00
2019-05-18T19:22:57.357Z,98.20
2019-05-18T19:25:03.093Z,98.70
2019-05-18T19:27:08.668Z,98.60
2019-05-18T19:29:41.326Z,98.60
2019-05-18T19:31:46.851Z,99.20
2019-05-18T19:33:52.386Z,98.90
2019-05-18T19:36:04.828Z,98.90
2019-05-18T19:38:10.525Z,99.00
2019-05-18T19:40:16.686Z,98.80
2019-05-18T19:42:22.264Z,98.80
2019-05-18T19:44:27.826Z,98.60
2019-05-18T19:46:33.440Z,98.60
2019-05-18T19:48:38.973Z,98.50
2019-05-18T19:50:44.746Z,98.40
2019-05-18T19:52:50.326Z,98.60
2019-05-18T19:54:56.004Z,98.70
2019-05-18T19:57:01.585Z,98.70
2019-05-18T19:59:07.177Z,98.20
2019-05-18T20:01:12.796Z,98.30
2019-05-18T20:03:24.412Z,98.90
2019-05-18T20:08:01.956Z,98.60
2019-05-18T20:10:14.052Z,98.60
2019-05-18T20:12:19.902Z,98.80
2019-05-18T20:14:37.652Z,98.90
2019-05-18T20:16:48.442Z,98.80
2019-05-18T20:18:53.992Z,98.80
2019-05-18T20:20:59.560Z,99.10
2019-05-18T20:23:43.425Z,99.00
2019-05-18T20:25:49.013Z,98.80
2019-05-18T20:27:54.517Z,99.10
2019-05-18T20:30:00.138Z,99.30
2019-05-18T20:32:05.813Z,99.30
2019-05-18T20:34:11.415Z,98.70
2019-05-18T20:36:16.946Z,98.80
2019-05-18T20:38:22.500Z,99.10
2019-05-18T20:40:28.032Z,98.80
2019-05-18T20:42:37.180Z,98.90
2019-05-18T20:44:40.836Z,99.10
2019-05-18T20:46:46.589Z,98.80
2019-05-18T20:48:52.124Z,99.10
2019-05-18T20:50:57.757Z,98.90
2019-05-18T20:53:22.826Z,99.20
2019-05-18T20:55:28.382Z,99.20
2019-05-18T20:57:33.940Z,99.20
2019-05-18T20:59:39.483Z,98.90
2019-05-18T21:01:45.012Z,99.40
2019-05-18T21:03:50.580Z,99.40
2019-05-18T21:06:09.821Z,99.30
2019-05-18T21:08:15.441Z,99.30
2019-05-18T21:10:21.098Z,99.30
2019-05-18T21:12:26.693Z,99.40
2019-05-18T21:14:44.523Z,99.20
2019-05-18T21:16:50.084Z,99.80
2019-05-18T21:18:55.624Z,99.80
2019-05-18T21:21:01.158Z,99.10
2019-05-18T21:23:12.514Z,99.50
2019-05-18T21:25:18.232Z,99.90
2019-05-18T21:27:23.778Z,99.80
2019-05-18T21:29:29.344Z,99.90
2019-05-18T21:31:34.873Z,99.90
2019-05-18T21:33:54.745Z,99.90
2019-05-18T21:36:00.319Z,99.90
2019-05-18T21:38:06.249Z,99.90
2019-05-18T21:40:26.082Z,99.90
2019-05-18T21:43:18.458Z,99.70
2019-05-18T21:45:24.006Z,99.90
2019-05-18T21:47:29.593Z,99.90
2019-05-18T21:49:35.148Z,99.90
2019-05-18T21:51:45.741Z,99.90
2019-05-18T21:53:51.314Z,99.80
2019-05-18T21:55:56.854Z,99.90
2019-05-18T21:58:22.079Z,99.90
2019-05-18T22:00:30.751Z,99.90
2019-05-18T22:02:53.346Z,99.90
2019-05-18T22:04:58.966Z,99.90
2019-05-18T22:07:05.728Z,99.90
2019-05-18T22:09:11.433Z,99.90
2019-05-18T22:11:17.037Z,99.90
2019-05-18T22:13:28.873Z,99.90
2019-05-18T22:15:56.065Z,99.90
2019-05-18T22:18:04.562Z,99.90
2019-05-18T22:20:10.233Z,99.90
2019-05-18T22:22:15.872Z,99.90
2019-05-18T22:24:21.414Z,99.90
2019-05-18T22:26:30.763Z,99.90
2019-05-18T22:28:36.496Z,99.90
2019-05-18T22:30:43.256Z,99.90
2019-05-18T22:32:48.800Z,99.90
2019-05-18T22:34:54.366Z,99.90
2019-05-18T22:36:59.910Z,99.90
2019-05-18T22:39:26.737Z,99.90
2019-05-18T22:41:32.432Z,99.90
2019-05-18T22:43:37.960Z,99.90
2019-05-18T22:45:43.554Z,99.90
2019-05-18T22:47:49.110Z,99.90
2019-05-18T22:49:56.230Z,99.90
2019-05-18T22:52:01.813Z,99.90
2019-05-18T22:54:07.451Z,99.90
2019-05-18T22:56:15.789Z,99.90
2019-05-18T22:58:33.364Z,99.90
2019-05-18T23:00:38.990Z,99.90
2019-05-18T23:02:46.788Z,99.90
2019-05-18T23:04:52.377Z,99.90
2019-05-18T23:06:58.027Z,99.90
2019-05-18T23:09:05.008Z,99.90
2019-05-18T23:11:10.614Z,99.90
2019-05-18T23:13:18.356Z,99.90
2019-05-18T23:15:23.962Z,99.90
2019-05-18T23:17:29.669Z,99.90
2019-05-18T23:19:35.185Z,99.90
2019-05-18T23:21:40.700Z,99.90
2019-05-18T23:23:46.237Z,99.90
2019-05-18T23:25:51.906Z,99.90
2019-05-18T23:27:57.449Z,99.90
2019-05-18T23:30:04.351Z,99.90
2019-05-18T23:32:10.166Z,99.90
2019-05-18T23:34:15.663Z,99.90
2019-05-18T23:36:21.196Z,99.90
2019-05-18T23:38:26.775Z,99.90
2019-05-18T23:40:35.437Z,99.90
2019-05-18T23:42:41.003Z,99.90
2019-05-18T23:44:48.220Z,99.90
2019-05-18T23:46:53.781Z,99.90
2019-05-18T23:49:10.086Z,99.90
2019-05-18T23:51:06.799Z,99.90
2019-05-18T23:53:12.380Z,99.90
2019-05-18T23:55:18.067Z,99.90
2019-05-18T23:57:23.630Z,99.90
2019-05-18T23:59:29.213Z,99.90
